sensor_id;sensor_type;location;lat;lon;timestamp;P1;durP1;ratioP1;P2;durP2;ratioP2
65279;SDS011;51878;55.748;48.742;2023-07-13T00:00:55;2.75;;;1.70;;
65279;SDS011;51878;55.748;48.742;2023-07-13T00:05:59;4.78;;;1.55;;
65279;SDS011;51878;55.748;48.742;2023-07-13T00:11:02;1.90;;;1.50;;
65279;SDS011;51878;55.748;48.742;2023-07-13T00:16:05;1.27;;;1.17;;
65279;SDS011;51878;55.748;48.742;2023-07-13T00:21:07;1.90;;;1.48;;
65279;SDS011;51878;55.748;48.742;2023-07-13T00:26:10;1.75;;;1.60;;
65279;SDS011;51878;55.748;48.742;2023-07-13T00:31:14;1.65;;;1.52;;
65279;SDS011;51878;55.748;48.742;2023-07-13T00:36:17;3.80;;;1.67;;
65279;SDS011;51878;55.748;48.742;2023-07-13T00:41:19;2.90;;;1.98;;
65279;SDS011;51878;55.748;48.742;2023-07-13T00:46:26;2.85;;;1.70;;
65279;SDS011;51878;55.748;48.742;2023-07-13T00:51:33;3.17;;;1.40;;
65279;SDS011;51878;55.748;48.742;2023-07-13T00:56:40;5.35;;;1.35;;
65279;SDS011;51878;55.748;48.742;2023-07-13T01:01:45;5.72;;;1.60;;
65279;SDS011;51878;55.748;48.742;2023-07-13T01:06:48;2.35;;;1.55;;
65279;SDS011;51878;55.748;48.742;2023-07-13T01:11:50;2.35;;;1.48;;
65279;SDS011;51878;55.748;48.742;2023-07-13T01:16:52;2.08;;;1.55;;
65279;SDS011;51878;55.748;48.742;2023-07-13T01:21:56;3.03;;;1.60;;
65279;SDS011;51878;55.748;48.742;2023-07-13T01:26:58;2.35;;;1.85;;
65279;SDS011;51878;55.748;48.742;2023-07-13T01:32:00;4.90;;;1.63;;
65279;SDS011;51878;55.748;48.742;2023-07-13T01:37:03;7.95;;;1.80;;
65279;SDS011;51878;55.748;48.742;2023-07-13T01:42:07;3.03;;;1.85;;
65279;SDS011;51878;55.748;48.742;2023-07-13T01:47:09;2.45;;;1.67;;
65279;SDS011;51878;55.748;48.742;2023-07-13T01:52:12;6.68;;;2.00;;
65279;SDS011;51878;55.748;48.742;2023-07-13T01:57:15;1.80;;;1.70;;
65279;SDS011;51878;55.748;48.742;2023-07-13T02:02:17;4.88;;;1.92;;
65279;SDS011;51878;55.748;48.742;2023-07-13T02:07:19;4.00;;;1.85;;
65279;SDS011;51878;55.748;48.742;2023-07-13T02:12:22;1.75;;;1.65;;
65279;SDS011;51878;55.748;48.742;2023-07-13T02:17:25;2.20;;;2.00;;
65279;SDS011;51878;55.748;48.742;2023-07-13T02:22:28;2.63;;;1.90;;
65279;SDS011;51878;55.748;48.742;2023-07-13T02:27:31;3.63;;;1.92;;
65279;SDS011;51878;55.748;48.742;2023-07-13T02:32:33;4.10;;;1.70;;
65279;SDS011;51878;55.748;48.742;2023-07-13T02:37:37;2.22;;;1.80;;
65279;SDS011;51878;55.748;48.742;2023-07-13T02:42:39;4.57;;;1.85;;
65279;SDS011;51878;55.748;48.742;2023-07-13T02:47:42;2.05;;;1.85;;
65279;SDS011;51878;55.748;48.742;2023-07-13T02:52:44;2.85;;;2.20;;
65279;SDS011;51878;55.748;48.742;2023-07-13T02:57:46;2.38;;;1.70;;
65279;SDS011;51878;55.748;48.742;2023-07-13T03:02:48;3.53;;;1.98;;
65279;SDS011;51878;55.748;48.742;2023-07-13T03:07:51;2.10;;;1.90;;
65279;SDS011;51878;55.748;48.742;2023-07-13T03:12:53;1.92;;;1.77;;
65279;SDS011;51878;55.748;48.742;2023-07-13T03:17:55;1.90;;;1.70;;
65279;SDS011;51878;55.748;48.742;2023-07-13T03:22:58;3.78;;;1.85;;
65279;SDS011;51878;55.748;48.742;2023-07-13T03:28:00;3.47;;;2.13;;
65279;SDS011;51878;55.748;48.742;2023-07-13T03:33:03;3.63;;;1.98;;
65279;SDS011;51878;55.748;48.742;2023-07-13T03:38:08;4.20;;;2.03;;
65279;SDS011;51878;55.748;48.742;2023-07-13T03:43:10;3.08;;;2.03;;
65279;SDS011;51878;55.748;48.742;2023-07-13T03:48:12;2.58;;;1.90;;
65279;SDS011;51878;55.748;48.742;2023-07-13T03:53:18;3.05;;;2.08;;
65279;SDS011;51878;55.748;48.742;2023-07-13T03:58:28;3.03;;;2.10;;
65279;SDS011;51878;55.748;48.742;2023-07-13T04:03:32;2.80;;;2.10;;
65279;SDS011;51878;55.748;48.742;2023-07-13T04:08:36;5.00;;;2.67;;
65279;SDS011;51878;55.748;48.742;2023-07-13T04:13:38;3.05;;;2.08;;
65279;SDS011;51878;55.748;48.742;2023-07-13T04:18:41;2.72;;;2.30;;
65279;SDS011;51878;55.748;48.742;2023-07-13T04:23:43;3.90;;;2.20;;
65279;SDS011;51878;55.748;48.742;2023-07-13T04:28:49;2.85;;;2.00;;
65279;SDS011;51878;55.748;48.742;2023-07-13T04:33:52;3.72;;;2.00;;
65279;SDS011;51878;55.748;48.742;2023-07-13T04:38:55;11.23;;;2.70;;
65279;SDS011;51878;55.748;48.742;2023-07-13T04:43:57;13.35;;;2.40;;
65279;SDS011;51878;55.748;48.742;2023-07-13T04:48:59;6.43;;;3.00;;
65279;SDS011;51878;55.748;48.742;2023-07-13T04:54:02;2.47;;;2.00;;
65279;SDS011;51878;55.748;48.742;2023-07-13T04:59:04;2.30;;;2.10;;
65279;SDS011;51878;55.748;48.742;2023-07-13T05:04:06;2.95;;;1.80;;
65279;SDS011;51878;55.748;48.742;2023-07-13T05:09:09;7.00;;;2.17;;
65279;SDS011;51878;55.748;48.742;2023-07-13T05:14:11;4.15;;;1.85;;
65279;SDS011;51878;55.748;48.742;2023-07-13T05:19:13;2.83;;;1.88;;
65279;SDS011;51878;55.748;48.742;2023-07-13T05:24:16;6.38;;;2.08;;
65279;SDS011;51878;55.748;48.742;2023-07-13T05:29:25;3.43;;;1.90;;
65279;SDS011;51878;55.748;48.742;2023-07-13T05:34:28;3.72;;;1.88;;
65279;SDS011;51878;55.748;48.742;2023-07-13T05:39:31;4.88;;;1.80;;
65279;SDS011;51878;55.748;48.742;2023-07-13T05:44:33;6.55;;;2.15;;
65279;SDS011;51878;55.748;48.742;2023-07-13T05:49:35;1.63;;;1.48;;
65279;SDS011;51878;55.748;48.742;2023-07-13T05:54:38;15.88;;;1.40;;
65279;SDS011;51878;55.748;48.742;2023-07-13T05:59:40;1.30;;;1.20;;
65279;SDS011;51878;55.748;48.742;2023-07-13T06:04:42;7.63;;;1.42;;
65279;SDS011;51878;55.748;48.742;2023-07-13T06:09:44;1.88;;;1.40;;
65279;SDS011;51878;55.748;48.742;2023-07-13T06:14:47;1.38;;;1.27;;
65279;SDS011;51878;55.748;48.742;2023-07-13T06:19:49;9.70;;;1.65;;
65279;SDS011;51878;55.748;48.742;2023-07-13T06:24:51;5.28;;;1.60;;
65279;SDS011;51878;55.748;48.742;2023-07-13T06:29:54;2.08;;;1.70;;
65279;SDS011;51878;55.748;48.742;2023-07-13T06:34:56;4.82;;;1.80;;
65279;SDS011;51878;55.748;48.742;2023-07-13T06:39:58;1.88;;;1.48;;
65279;SDS011;51878;55.748;48.742;2023-07-13T06:45:01;4.25;;;1.70;;
65279;SDS011;51878;55.748;48.742;2023-07-13T06:50:05;1.90;;;1.70;;
65279;SDS011;51878;55.748;48.742;2023-07-13T06:55:10;5.78;;;1.88;;
65279;SDS011;51878;55.748;48.742;2023-07-13T07:00:12;5.72;;;2.13;;
65279;SDS011;51878;55.748;48.742;2023-07-13T07:05:15;10.25;;;2.05;;
65279;SDS011;51878;55.748;48.742;2023-07-13T07:10:21;2.42;;;1.48;;
65279;SDS011;51878;55.748;48.742;2023-07-13T07:15:23;8.35;;;2.10;;
65279;SDS011;51878;55.748;48.742;2023-07-13T07:20:26;1.42;;;1.33;;
65279;SDS011;51878;55.748;48.742;2023-07-13T07:25:29;1.27;;;1.17;;
65279;SDS011;51878;55.748;48.742;2023-07-13T07:30:36;6.28;;;1.48;;
65279;SDS011;51878;55.748;48.742;2023-07-13T07:35:42;1.23;;;1.13;;
65279;SDS011;51878;55.748;48.742;2023-07-13T07:41:05;2.15;;;1.30;;
65279;SDS011;51878;55.748;48.742;2023-07-13T07:46:13;2.90;;;1.38;;
65279;SDS011;51878;55.748;48.742;2023-07-13T07:51:18;3.58;;;1.60;;
65279;SDS011;51878;55.748;48.742;2023-07-13T07:56:21;4.43;;;1.63;;
65279;SDS011;51878;55.748;48.742;2023-07-13T08:01:26;3.35;;;1.30;;
65279;SDS011;51878;55.748;48.742;2023-07-13T08:06:32;1.30;;;1.20;;
65279;SDS011;51878;55.748;48.742;2023-07-13T08:11:38;8.07;;;1.60;;
65279;SDS011;51878;55.748;48.742;2023-07-13T08:16:43;1.50;;;1.33;;
65279;SDS011;51878;55.748;48.742;2023-07-13T08:21:45;4.45;;;1.30;;
65279;SDS011;51878;55.748;48.742;2023-07-13T08:26:50;1.10;;;1.10;;
65279;SDS011;51878;55.748;48.742;2023-07-13T08:31:53;1.50;;;1.30;;
65279;SDS011;51878;55.748;48.742;2023-07-13T08:36:56;2.58;;;1.35;;
65279;SDS011;51878;55.748;48.742;2023-07-13T08:47:34;5.82;;;1.60;;
65279;SDS011;51878;55.748;48.742;2023-07-13T08:52:40;2.50;;;1.20;;
65279;SDS011;51878;55.748;48.742;2023-07-13T08:57:46;5.43;;;1.27;;
65279;SDS011;51878;55.748;48.742;2023-07-13T09:02:56;6.93;;;1.35;;
65279;SDS011;51878;55.748;48.742;2023-07-13T09:08:09;2.45;;;1.10;;
65279;SDS011;51878;55.748;48.742;2023-07-13T09:13:37;2.22;;;1.10;;
65279;SDS011;51878;55.748;48.742;2023-07-13T09:18:49;3.08;;;1.60;;
65279;SDS011;51878;55.748;48.742;2023-07-13T09:23:56;1.65;;;1.35;;
65279;SDS011;51878;55.748;48.742;2023-07-13T09:29:19;3.00;;;1.30;;
65279;SDS011;51878;55.748;48.742;2023-07-13T09:34:31;1.40;;;1.00;;
65279;SDS011;51878;55.748;48.742;2023-07-13T09:39:41;3.88;;;1.30;;
65279;SDS011;51878;55.748;48.742;2023-07-13T09:49:56;5.15;;;1.20;;
65279;SDS011;51878;55.748;48.742;2023-07-13T09:55:11;2.00;;;1.00;;
65279;SDS011;51878;55.748;48.742;2023-07-13T10:00:28;0.98;;;0.98;;
65279;SDS011;51878;55.748;48.742;2023-07-13T10:05:38;4.22;;;1.20;;
65279;SDS011;51878;55.748;48.742;2023-07-13T10:10:57;1.48;;;1.20;;
65279;SDS011;51878;55.748;48.742;2023-07-13T10:16:10;5.47;;;1.30;;
65279;SDS011;51878;55.748;48.742;2023-07-13T10:21:19;2.38;;;1.20;;
65279;SDS011;51878;55.748;48.742;2023-07-13T10:26:36;3.22;;;1.38;;
65279;SDS011;51878;55.748;48.742;2023-07-13T10:31:48;1.13;;;1.00;;
65279;SDS011;51878;55.748;48.742;2023-07-13T10:36:52;1.95;;;0.90;;
65279;SDS011;51878;55.748;48.742;2023-07-13T10:41:59;1.67;;;1.20;;
65279;SDS011;51878;55.748;48.742;2023-07-13T10:47:08;1.30;;;1.20;;
65279;SDS011;51878;55.748;48.742;2023-07-13T10:57:52;4.80;;;1.30;;
65279;SDS011;51878;55.748;48.742;2023-07-13T11:03:00;2.58;;;1.30;;
65279;SDS011;51878;55.748;48.742;2023-07-13T11:24:16;1.20;;;1.10;;
65279;SDS011;51878;55.748;48.742;2023-07-13T11:39:37;1.90;;;1.10;;
65279;SDS011;51878;55.748;48.742;2023-07-13T11:44:48;6.47;;;1.10;;
65279;SDS011;51878;55.748;48.742;2023-07-13T11:50:18;1.00;;;1.00;;
65279;SDS011;51878;55.748;48.742;2023-07-13T11:55:25;2.03;;;1.20;;
65279;SDS011;51878;55.748;48.742;2023-07-13T12:00:30;1.38;;;1.27;;
65279;SDS011;51878;55.748;48.742;2023-07-13T12:05:54;1.10;;;0.98;;
65279;SDS011;51878;55.748;48.742;2023-07-13T12:10:59;3.08;;;1.20;;
65279;SDS011;51878;55.748;48.742;2023-07-13T12:16:11;3.67;;;1.20;;
65279;SDS011;51878;55.748;48.742;2023-07-13T12:21:17;1.00;;;1.00;;
65279;SDS011;51878;55.748;48.742;2023-07-13T12:26:21;1.00;;;1.00;;
65279;SDS011;51878;55.748;48.742;2023-07-13T12:36:31;5.72;;;1.55;;
65279;SDS011;51878;55.748;48.742;2023-07-13T12:41:35;2.55;;;1.20;;
65279;SDS011;51878;55.748;48.742;2023-07-13T12:46:38;1.80;;;1.35;;
65279;SDS011;51878;55.748;48.742;2023-07-13T12:51:40;2.13;;;1.10;;
65279;SDS011;51878;55.748;48.742;2023-07-13T12:56:44;5.85;;;1.20;;
65279;SDS011;51878;55.748;48.742;2023-07-13T13:01:51;2.72;;;1.00;;
65279;SDS011;51878;55.748;48.742;2023-07-13T13:07:02;2.55;;;1.23;;
65279;SDS011;51878;55.748;48.742;2023-07-13T13:12:08;2.42;;;1.08;;
65279;SDS011;51878;55.748;48.742;2023-07-13T13:17:25;1.00;;;1.00;;
65279;SDS011;51878;55.748;48.742;2023-07-13T13:22:30;1.10;;;1.10;;
65279;SDS011;51878;55.748;48.742;2023-07-13T13:27:36;1.55;;;1.20;;
65279;SDS011;51878;55.748;48.742;2023-07-13T13:32:42;2.15;;;1.30;;
65279;SDS011;51878;55.748;48.742;2023-07-13T13:37:46;2.80;;;1.40;;
65279;SDS011;51878;55.748;48.742;2023-07-13T13:42:51;4.68;;;1.35;;
65279;SDS011;51878;55.748;48.742;2023-07-13T13:47:56;0.93;;;0.80;;
65279;SDS011;51878;55.748;48.742;2023-07-13T13:52:58;2.50;;;2.30;;
65279;SDS011;51878;55.748;48.742;2023-07-13T13:58:03;1.23;;;1.00;;
65279;SDS011;51878;55.748;48.742;2023-07-13T14:03:08;3.15;;;1.23;;
65279;SDS011;51878;55.748;48.742;2023-07-13T14:08:21;2.47;;;1.10;;
65279;SDS011;51878;55.748;48.742;2023-07-13T14:13:25;6.38;;;1.25;;
65279;SDS011;51878;55.748;48.742;2023-07-13T14:18:30;2.13;;;1.05;;
65279;SDS011;51878;55.748;48.742;2023-07-13T14:23:32;1.27;;;1.20;;
65279;SDS011;51878;55.748;48.742;2023-07-13T14:28:34;2.97;;;2.13;;
65279;SDS011;51878;55.748;48.742;2023-07-13T14:33:37;2.33;;;1.33;;
65279;SDS011;51878;55.748;48.742;2023-07-13T14:38:39;2.78;;;1.52;;
65279;SDS011;51878;55.748;48.742;2023-07-13T14:43:42;4.32;;;1.65;;
65279;SDS011;51878;55.748;48.742;2023-07-13T14:48:44;7.38;;;1.95;;
65279;SDS011;51878;55.748;48.742;2023-07-13T14:53:51;6.18;;;2.10;;
65279;SDS011;51878;55.748;48.742;2023-07-13T14:58:54;3.85;;;1.80;;
65279;SDS011;51878;55.748;48.742;2023-07-13T15:03:59;5.53;;;1.65;;
65279;SDS011;51878;55.748;48.742;2023-07-13T15:09:02;4.75;;;2.20;;
65279;SDS011;51878;55.748;48.742;2023-07-13T15:14:05;5.25;;;2.30;;
65279;SDS011;51878;55.748;48.742;2023-07-13T15:19:09;4.40;;;1.50;;
65279;SDS011;51878;55.748;48.742;2023-07-13T15:24:12;3.95;;;1.73;;
65279;SDS011;51878;55.748;48.742;2023-07-13T15:29:17;4.38;;;1.70;;
65279;SDS011;51878;55.748;48.742;2023-07-13T15:34:20;3.75;;;1.65;;
65279;SDS011;51878;55.748;48.742;2023-07-13T15:39:28;3.58;;;1.50;;
65279;SDS011;51878;55.748;48.742;2023-07-13T15:44:36;2.55;;;1.30;;
65279;SDS011;51878;55.748;48.742;2023-07-13T15:49:38;11.30;;;1.33;;
65279;SDS011;51878;55.748;48.742;2023-07-13T15:54:41;3.10;;;1.27;;
65279;SDS011;51878;55.748;48.742;2023-07-13T15:59:43;4.13;;;1.55;;
65279;SDS011;51878;55.748;48.742;2023-07-13T16:04:48;1.73;;;1.25;;
65279;SDS011;51878;55.748;48.742;2023-07-13T16:09:51;1.55;;;1.33;;
65279;SDS011;51878;55.748;48.742;2023-07-13T16:14:53;4.03;;;1.50;;
65279;SDS011;51878;55.748;48.742;2023-07-13T16:20:00;1.88;;;1.23;;
65279;SDS011;51878;55.748;48.742;2023-07-13T16:25:14;2.65;;;1.50;;
65279;SDS011;51878;55.748;48.742;2023-07-13T16:30:22;1.88;;;1.67;;
65279;SDS011;51878;55.748;48.742;2023-07-13T16:35:28;3.58;;;1.90;;
65279;SDS011;51878;55.748;48.742;2023-07-13T16:40:35;4.10;;;2.63;;
65279;SDS011;51878;55.748;48.742;2023-07-13T16:45:38;6.85;;;3.90;;
65279;SDS011;51878;55.748;48.742;2023-07-13T16:50:44;4.80;;;3.10;;
65279;SDS011;51878;55.748;48.742;2023-07-13T17:00:58;8.90;;;3.13;;
65279;SDS011;51878;55.748;48.742;2023-07-13T17:11:35;6.13;;;2.15;;
65279;SDS011;51878;55.748;48.742;2023-07-13T17:16:37;2.53;;;1.80;;
65279;SDS011;51878;55.748;48.742;2023-07-13T17:21:39;1.98;;;1.70;;
65279;SDS011;51878;55.748;48.742;2023-07-13T17:26:43;2.85;;;1.60;;
65279;SDS011;51878;55.748;48.742;2023-07-13T17:31:46;2.28;;;1.35;;
65279;SDS011;51878;55.748;48.742;2023-07-13T17:36:49;1.90;;;1.60;;
65279;SDS011;51878;55.748;48.742;2023-07-13T17:41:51;2.45;;;1.70;;
65279;SDS011;51878;55.748;48.742;2023-07-13T17:46:54;1.63;;;1.45;;
65279;SDS011;51878;55.748;48.742;2023-07-13T17:51:56;2.45;;;1.58;;
65279;SDS011;51878;55.748;48.742;2023-07-13T17:57:00;3.17;;;1.70;;
65279;SDS011;51878;55.748;48.742;2023-07-13T18:02:02;2.00;;;1.70;;
65279;SDS011;51878;55.748;48.742;2023-07-13T18:07:08;3.50;;;1.73;;
65279;SDS011;51878;55.748;48.742;2023-07-13T18:12:19;3.85;;;1.80;;
65279;SDS011;51878;55.748;48.742;2023-07-13T18:17:25;4.32;;;2.05;;
65279;SDS011;51878;55.748;48.742;2023-07-13T18:22:27;5.88;;;2.00;;
65279;SDS011;51878;55.748;48.742;2023-07-13T18:27:30;3.72;;;2.10;;
65279;SDS011;51878;55.748;48.742;2023-07-13T18:32:32;6.50;;;2.08;;
65279;SDS011;51878;55.748;48.742;2023-07-13T18:37:36;3.58;;;2.25;;
65279;SDS011;51878;55.748;48.742;2023-07-13T18:42:39;2.70;;;1.95;;
65279;SDS011;51878;55.748;48.742;2023-07-13T18:47:41;8.82;;;2.20;;
65279;SDS011;51878;55.748;48.742;2023-07-13T18:52:46;8.45;;;2.38;;
65279;SDS011;51878;55.748;48.742;2023-07-13T18:57:49;10.52;;;2.33;;
65279;SDS011;51878;55.748;48.742;2023-07-13T19:02:56;3.70;;;1.92;;
65279;SDS011;51878;55.748;48.742;2023-07-13T19:08:04;5.10;;;1.95;;
65279;SDS011;51878;55.748;48.742;2023-07-13T19:13:13;3.95;;;2.25;;
65279;SDS011;51878;55.748;48.742;2023-07-13T19:18:21;3.03;;;1.77;;
65279;SDS011;51878;55.748;48.742;2023-07-13T19:23:32;4.55;;;2.08;;
65279;SDS011;51878;55.748;48.742;2023-07-13T19:28:43;4.95;;;3.20;;
65279;SDS011;51878;55.748;48.742;2023-07-13T19:33:46;9.07;;;2.25;;
65279;SDS011;51878;55.748;48.742;2023-07-13T19:38:50;3.72;;;2.00;;
65279;SDS011;51878;55.748;48.742;2023-07-13T19:43:54;3.22;;;2.38;;
65279;SDS011;51878;55.748;48.742;2023-07-13T19:48:57;7.40;;;5.50;;
65279;SDS011;51878;55.748;48.742;2023-07-13T19:54:11;3.85;;;2.95;;
65279;SDS011;51878;55.748;48.742;2023-07-13T19:59:23;5.13;;;2.22;;
65279;SDS011;51878;55.748;48.742;2023-07-13T20:04:29;5.60;;;2.03;;
65279;SDS011;51878;55.748;48.742;2023-07-13T20:09:34;4.50;;;2.55;;
65279;SDS011;51878;55.748;48.742;2023-07-13T20:14:44;4.47;;;2.50;;
65279;SDS011;51878;55.748;48.742;2023-07-13T20:19:48;3.85;;;2.40;;
65279;SDS011;51878;55.748;48.742;2023-07-13T20:24:50;5.35;;;2.20;;
65279;SDS011;51878;55.748;48.742;2023-07-13T20:29:52;3.95;;;2.00;;
65279;SDS011;51878;55.748;48.742;2023-07-13T20:35:00;2.47;;;1.95;;
65279;SDS011;51878;55.748;48.742;2023-07-13T20:40:08;4.10;;;2.40;;
65279;SDS011;51878;55.748;48.742;2023-07-13T20:45:21;3.10;;;1.90;;
65279;SDS011;51878;55.748;48.742;2023-07-13T20:50:33;5.10;;;2.70;;
65279;SDS011;51878;55.748;48.742;2023-07-13T20:55:35;4.50;;;2.30;;
65279;SDS011;51878;55.748;48.742;2023-07-13T21:00:38;8.00;;;1.90;;
65279;SDS011;51878;55.748;48.742;2023-07-13T21:05:48;2.83;;;1.85;;
65279;SDS011;51878;55.748;48.742;2023-07-13T21:10:55;6.30;;;2.10;;
65279;SDS011;51878;55.748;48.742;2023-07-13T21:16:25;4.40;;;1.88;;
65279;SDS011;51878;55.748;48.742;2023-07-13T21:21:31;6.00;;;2.00;;
65279;SDS011;51878;55.748;48.742;2023-07-13T21:26:36;5.85;;;1.75;;
65279;SDS011;51878;55.748;48.742;2023-07-13T21:31:40;3.20;;;1.90;;
65279;SDS011;51878;55.748;48.742;2023-07-13T21:36:43;2.97;;;1.70;;
65279;SDS011;51878;55.748;48.742;2023-07-13T21:42:09;4.88;;;2.13;;
65279;SDS011;51878;55.748;48.742;2023-07-13T21:47:24;3.50;;;1.75;;
65279;SDS011;51878;55.748;48.742;2023-07-13T21:52:29;1.85;;;1.70;;
65279;SDS011;51878;55.748;48.742;2023-07-13T21:57:33;2.13;;;1.60;;
65279;SDS011;51878;55.748;48.742;2023-07-13T22:02:36;2.25;;;1.88;;
65279;SDS011;51878;55.748;48.742;2023-07-13T22:07:38;3.08;;;1.70;;
65279;SDS011;51878;55.748;48.742;2023-07-13T22:12:45;2.85;;;1.70;;
65279;SDS011;51878;55.748;48.742;2023-07-13T22:17:49;1.92;;;1.73;;
65279;SDS011;51878;55.748;48.742;2023-07-13T22:22:52;8.52;;;1.85;;
65279;SDS011;51878;55.748;48.742;2023-07-13T22:27:54;2.58;;;1.80;;
65279;SDS011;51878;55.748;48.742;2023-07-13T22:32:57;2.60;;;1.80;;
65279;SDS011;51878;55.748;48.742;2023-07-13T22:38:15;2.35;;;1.80;;
65279;SDS011;51878;55.748;48.742;2023-07-13T22:43:23;6.35;;;2.03;;
65279;SDS011;51878;55.748;48.742;2023-07-13T22:48:39;2.70;;;1.83;;
65279;SDS011;51878;55.748;48.742;2023-07-13T22:53:47;4.13;;;1.95;;
65279;SDS011;51878;55.748;48.742;2023-07-13T22:58:58;3.85;;;1.92;;
65279;SDS011;51878;55.748;48.742;2023-07-13T23:04:04;1.98;;;1.77;;
65279;SDS011;51878;55.748;48.742;2023-07-13T23:09:18;3.63;;;1.83;;
65279;SDS011;51878;55.748;48.742;2023-07-13T23:14:26;1.92;;;1.60;;
65279;SDS011;51878;55.748;48.742;2023-07-13T23:19:30;2.70;;;1.73;;
65279;SDS011;51878;55.748;48.742;2023-07-13T23:24:36;3.00;;;1.65;;
65279;SDS011;51878;55.748;48.742;2023-07-13T23:29:39;1.95;;;1.60;;
65279;SDS011;51878;55.748;48.742;2023-07-13T23:34:42;4.00;;;1.60;;
65279;SDS011;51878;55.748;48.742;2023-07-13T23:39:57;3.95;;;1.70;;
65279;SDS011;51878;55.748;48.742;2023-07-13T23:45:01;2.17;;;1.88;;
65279;SDS011;51878;55.748;48.742;2023-07-13T23:50:18;2.17;;;1.60;;
65279;SDS011;51878;55.748;48.742;2023-07-13T23:55:23;2.00;;;1.65;;
